Time;durP1;ratioP1;P1;durP2;ratioP2;P2;SDS_P1;SDS_P2;PMS_P1;PMS_P2;Temp;Humidity;BMP_temperature;BMP_pressure;BME280_temperature;BME280_humidity;BME280_pressure;Samples;Min_cycle;Max_cycle;Signal;HPM_P1;HPM_P2
2020/12/23 00:01:42;;;;;;;0.25;0.10;;;11.80;98.20;;;;;;4863398;29;20052;-87
2020/12/23 00:04:17;;;;;;;0.63;0.22;;;11.80;98.20;;;;;;4849717;29;20095;-89
2020/12/23 00:06:56;;;;;;;3.22;0.20;;;11.90;98.20;;;;;;4854125;29;20129;-87
2020/12/23 00:09:28;;;;;;;3.10;0.63;;;11.90;98.30;;;;;;4847290;29;20100;-89
2020/12/23 00:11:56;;;;;;;1.98;0.22;;;12.00;98.30;;;;;;4858022;29;20061;-88
2020/12/23 00:14:27;;;;;;;0.43;0.20;;;12.00;98.30;;;;;;4861594;29;20056;-88
2020/12/23 00:17:03;;;;;;;1.45;0.30;;;12.00;98.30;;;;;;4860101;29;20038;-90
2020/12/23 00:19:33;;;;;;;0.43;0.22;;;12.00;98.30;;;;;;4845142;29;20260;-89
2020/12/23 00:22:17;;;;;;;1.63;0.30;;;12.00;98.40;;;;;;4875449;29;20054;-89
2020/12/23 00:24:45;;;;;;;0.35;0.28;;;12.10;98.40;;;;;;4861970;29;20060;-88
2020/12/23 00:27:15;;;;;;;0.55;0.28;;;12.10;98.30;;;;;;4862024;29;20117;-89
2020/12/23 00:29:51;;;;;;;1.35;0.20;;;12.10;98.20;;;;;;4857314;29;20121;-88
2020/12/23 00:32:32;;;;;;;1.02;0.50;;;12.20;98.30;;;;;;4844713;29;20070;-90
2020/12/23 00:35:20;;;;;;;0.52;0.30;;;12.20;98.20;;;;;;4865827;29;20049;-89
2020/12/23 00:37:48;;;;;;;0.70;0.28;;;12.20;98.30;;;;;;4865500;29;20061;-88
2020/12/23 00:40:17;;;;;;;0.68;0.30;;;12.20;98.30;;;;;;4854172;29;20065;-88
2020/12/23 00:42:47;;;;;;;0.45;0.38;;;12.20;98.20;;;;;;4860633;29;20050;-88
2020/12/23 00:45:29;;;;;;;0.98;0.38;;;12.20;98.10;;;;;;4867957;29;20356;-87
2020/12/23 00:48:11;;;;;;;0.35;0.30;;;12.30;98.20;;;;;;4876527;29;20082;-88
2020/12/23 00:50:44;;;;;;;3.25;0.93;;;12.30;98.30;;;;;;4873093;29;20054;-88
2020/12/23 00:53:13;;;;;;;0.75;0.50;;;12.40;98.30;;;;;;4849518;29;20083;-89
2020/12/23 00:55:43;;;;;;;2.13;0.80;;;12.50;98.20;;;;;;4845190;29;20050;-88
2020/12/23 00:58:18;;;;;;;2.10;0.65;;;12.60;98.00;;;;;;4873716;29;20054;-87
2020/12/23 01:00:54;;;;;;;1.27;0.82;;;12.60;97.90;;;;;;4864389;29;20054;-87
2020/12/23 01:03:24;;;;;;;3.53;0.70;;;12.70;97.70;;;;;;4854708;29;20050;-88
2020/12/23 01:06:10;;;;;;;3.15;0.63;;;12.70;97.70;;;;;;4870669;29;20045;-87
2020/12/23 01:08:41;;;;;;;1.05;0.70;;;12.70;97.70;;;;;;4870669;29;20047;-88
2020/12/23 01:11:16;;;;;;;1.02;0.60;;;12.70;97.60;;;;;;4842178;29;20050;-88
2020/12/23 01:13:54;;;;;;;0.95;0.60;;;12.70;97.70;;;;;;4843829;29;20046;-89
2020/12/23 01:16:57;;;;;;;1.95;0.70;;;12.80;97.60;;;;;;4867803;29;20056;-89
2020/12/23 01:19:27;;;;;;;2.47;0.70;;;12.90;97.20;;;;;;4858900;29;20045;-89
2020/12/23 01:21:54;;;;;;;2.20;0.90;;;13.00;96.80;;;;;;4855975;29;20062;-86
2020/12/23 01:24:32;;;;;;;1.33;0.30;;;13.00;96.60;;;;;;4847245;29;20049;-87
2020/12/23 01:27:10;;;;;;;1.75;0.20;;;13.00;95.10;;;;;;4836899;29;20066;-89
2020/12/23 01:29:39;;;;;;;3.83;0.20;;;12.80;94.80;;;;;;4848087;29;20057;-88
2020/12/23 01:32:08;;;;;;;0.80;0.30;;;12.70;94.80;;;;;;4863726;29;20060;-87
2020/12/23 01:34:35;;;;;;;0.95;0.50;;;12.70;94.70;;;;;;4845653;29;20133;-87
2020/12/23 01:37:08;;;;;;;3.00;1.10;;;12.70;94.20;;;;;;4875722;29;20412;-86
2020/12/23 01:39:54;;;;;;;0.30;0.15;;;12.70;94.70;;;;;;4842386;29;20073;-89
2020/12/23 01:42:23;;;;;;;0.93;0.38;;;12.50;95.20;;;;;;4853161;29;20095;-88
2020/12/23 01:44:57;;;;;;;0.52;0.13;;;12.40;95.50;;;;;;4850285;29;20068;-89
2020/12/23 01:47:33;;;;;;;0.98;0.17;;;12.30;96.10;;;;;;4848908;29;20067;-88
2020/12/23 01:50:05;;;;;;;1.33;0.28;;;12.20;96.70;;;;;;4871089;29;20060;-87
2020/12/23 01:53:03;;;;;;;0.98;0.30;;;12.10;97.10;;;;;;4863312;29;20073;-87
2020/12/23 01:56:04;;;;;;;0.15;0.10;;;12.00;97.40;;;;;;4860537;29;20102;-88
2020/12/23 01:59:06;;;;;;;0.35;0.17;;;11.90;97.40;;;;;;4868607;29;20066;-88
2020/12/23 02:05:07;;;;;;;0.65;0.10;;;11.80;97.50;;;;;;4852741;29;20042;-87
2020/12/23 02:07:36;;;;;;;0.40;0.10;;;11.80;97.60;;;;;;4842044;29;20054;-86
2020/12/23 02:10:16;;;;;;;0.20;0.10;;;11.80;97.50;;;;;;4855780;29;20058;-89
2020/12/23 02:13:04;;;;;;;1.23;0.20;;;11.90;97.50;;;;;;4846473;29;20065;-90
2020/12/23 02:15:41;;;;;;;1.75;0.65;;;11.90;97.30;;;;;;4865316;29;20056;-89
2020/12/23 02:18:08;;;;;;;0.32;0.10;;;11.90;97.10;;;;;;4849420;29;20122;-92
2020/12/23 02:20:44;;;;;;;0.40;0.15;;;11.90;97.10;;;;;;4855417;29;20290;-86
2020/12/23 02:23:15;;;;;;;0.70;0.30;;;11.90;96.80;;;;;;4851593;29;20046;-89
2020/12/23 02:25:45;;;;;;;1.65;0.20;;;11.90;96.60;;;;;;4868608;29;20052;-88
2020/12/23 02:28:15;;;;;;;0.98;0.00;;;11.80;96.70;;;;;;4874465;29;20046;-89
2020/12/23 02:30:45;;;;;;;0.38;0.10;;;11.80;96.90;;;;;;4889918;29;20057;-88
2020/12/23 02:33:18;;;;;;;0.03;0.03;;;11.70;97.10;;;;;;4865597;29;20041;-89
2020/12/23 02:35:52;;;;;;;0.38;0.10;;;11.70;97.30;;;;;;4852086;29;20096;-89
2020/12/23 02:38:22;;;;;;;0.65;0.20;;;11.60;97.50;;;;;;4861738;29;20057;-87
2020/12/23 02:40:57;;;;;;;0.20;0.10;;;11.50;97.50;;;;;;4861054;29;20050;-89
2020/12/23 02:43:28;;;;;;;0.45;0.20;;;11.50;97.60;;;;;;4874602;29;20152;-88
2020/12/23 02:46:08;;;;;;;0.52;0.20;;;11.50;97.70;;;;;;4864369;29;20066;-89
2020/12/23 02:48:36;;;;;;;0.35;0.10;;;11.50;97.70;;;;;;4863234;29;20054;-87
2020/12/23 02:51:17;;;;;;;0.75;0.40;;;11.50;97.80;;;;;;4867054;29;20046;-89
2020/12/23 02:53:59;;;;;;;0.03;0.03;;;11.50;97.80;;;;;;4845507;29;20050;-88
2020/12/23 02:56:52;;;;;;;0.47;0.20;;;11.50;97.80;;;;;;4875342;29;20054;-87
2020/12/23 02:59:46;;;;;;;0.10;0.10;;;11.50;97.70;;;;;;4846903;29;20039;-89
2020/12/23 03:02:43;;;;;;;0.85;0.10;;;11.40;97.70;;;;;;4863687;29;20073;-89
2020/12/23 03:05:11;;;;;;;0.20;0.10;;;11.40;97.90;;;;;;4846369;29;20058;-88
2020/12/23 03:07:45;;;;;;;0.60;0.20;;;11.40;97.90;;;;;;4853605;29;20046;-87
2020/12/23 03:24:07;;;;;;;4.50;0.40;;;11.40;97.90;;;;;;6259558;22;2129460;-88
2020/12/23 03:26:40;;;;;;;0.20;0.10;;;11.50;98.00;;;;;;6311903;22;20022;-86
2020/12/23 03:29:26;;;;;;;1.10;0.28;;;11.50;98.00;;;;;;6312697;22;20018;-89
2020/12/23 03:32:03;;;;;;;;;;;11.50;98.00;;;;;;6287929;22;20053;-88
2020/12/23 03:34:40;;;;;;;0.70;0.17;;;11.50;98.00;;;;;;6311675;22;19911;-88
2020/12/23 03:37:07;;;;;;;0.17;0.10;;;11.50;98.00;;;;;;6312034;22;20085;-88
2020/12/23 03:39:55;;;;;;;0.50;0.10;;;11.50;98.00;;;;;;6311182;22;20018;-91
2020/12/23 03:42:22;;;;;;;0.30;0.17;;;11.50;98.10;;;;;;6338045;22;20015;-89
2020/12/23 03:44:51;;;;;;;0.45;0.20;;;11.50;98.10;;;;;;6336654;22;20102;-87
2020/12/23 03:47:19;;;;;;;1.63;0.35;;;11.60;98.20;;;;;;6284919;22;20015;-89
2020/12/23 03:49:49;;;;;;;1.02;0.20;;;11.50;98.10;;;;;;6338061;22;20023;-87
2020/12/23 03:52:17;;;;;;;0.38;0.15;;;11.60;98.10;;;;;;6284725;22;20026;-88
2020/12/23 03:54:51;;;;;;;1.55;0.52;;;11.60;98.10;;;;;;6310284;22;20072;-87
2020/12/23 03:57:24;;;;;;;0.75;0.30;;;11.60;98.10;;;;;;6337778;22;20014;-88
2020/12/23 03:59:52;;;;;;;0.38;0.20;;;11.60;98.20;;;;;;6285943;22;20034;-89
2020/12/23 04:02:20;;;;;;;1.27;0.20;;;11.60;98.20;;;;;;6339202;22;20041;-88
2020/12/23 04:04:47;;;;;;;3.83;0.40;;;11.60;98.00;;;;;;6311596;22;20026;-89
2020/12/23 04:07:14;;;;;;;0.90;0.22;;;11.60;98.10;;;;;;6337299;22;20014;-89
2020/12/23 04:10:02;;;;;;;1.95;0.50;;;11.50;98.00;;;;;;6338895;22;20202;-90
2020/12/23 04:12:35;;;;;;;1.52;0.30;;;11.50;98.10;;;;;;6311793;22;20066;-89
2020/12/23 04:15:09;;;;;;;0.88;0.30;;;11.60;98.20;;;;;;6338714;22;20062;-88
2020/12/23 04:17:38;;;;;;;1.73;0.43;;;11.60;98.30;;;;;;6284754;22;20019;-88
2020/12/23 04:20:21;;;;;;;1.77;0.30;;;11.60;98.10;;;;;;6311475;22;20015;-88
2020/12/23 04:22:48;;;;;;;0.88;0.40;;;11.70;98.30;;;;;;6337442;22;20019;-87
2020/12/23 04:25:15;;;;;;;1.70;0.50;;;11.60;98.00;;;;;;6277328;22;20082;-88
2020/12/23 04:27:49;;;;;;;1.25;0.28;;;11.60;97.90;;;;;;6279104;22;20079;-90
2020/12/23 04:30:34;;;;;;;0.90;0.32;;;11.60;98.10;;;;;;6279679;22;20011;-89
2020/12/23 04:33:29;;;;;;;1.55;0.77;;;11.60;98.10;;;;;;6306981;22;20062;-89
2020/12/23 04:36:01;;;;;;;1.95;0.60;;;11.60;98.10;;;;;;6273733;22;20020;-89
2020/12/23 04:41:20;;;;;;;2.42;0.73;;;11.60;98.10;;;;;;6308635;22;20004;-90
2020/12/23 04:43:56;;;;;;;1.90;0.32;;;11.70;98.10;;;;;;6305828;22;20021;-89
2020/12/23 04:46:35;;;;;;;0.85;0.40;;;11.60;98.00;;;;;;6279704;22;20023;-89
2020/12/23 04:49:04;;;;;;;1.95;0.55;;;11.70;98.10;;;;;;6304224;22;20038;-87
2020/12/23 04:51:34;;;;;;;0.80;0.35;;;11.70;97.90;;;;;;6277156;22;20357;-88
2020/12/23 04:54:03;;;;;;;1.08;0.40;;;11.70;98.00;;;;;;6302265;22;20030;-87
2020/12/23 04:56:34;;;;;;;3.25;0.80;;;11.70;98.10;;;;;;6328882;22;20027;-87
2020/12/23 04:59:04;;;;;;;2.33;0.52;;;11.70;98.10;;;;;;6278718;22;20048;-88
2020/12/23 05:01:34;;;;;;;1.75;0.65;;;11.70;98.10;;;;;;6331756;22;20007;-88
2020/12/23 05:04:06;;;;;;;2.80;0.60;;;11.70;98.10;;;;;;6303501;22;20023;-89
2020/12/23 05:06:47;;;;;;;2.65;0.93;;;11.70;98.00;;;;;;6332186;22;20041;-88
2020/12/23 05:09:16;;;;;;;1.73;0.68;;;11.70;98.20;;;;;;6302669;22;20188;-88
2020/12/23 05:11:49;;;;;;;3.30;0.70;;;11.70;98.10;;;;;;6276280;22;20023;-87
2020/12/23 05:14:28;;;;;;;1.70;0.60;;;11.70;98.00;;;;;;6303770;22;20011;-89
2020/12/23 05:20:07;;;;;;;2.47;0.80;;;11.80;98.20;;;;;;6276399;22;20022;-89
2020/12/23 05:22:38;;;;;;;1.23;0.45;;;11.80;98.20;;;;;;6303342;22;20062;-89
2020/12/23 05:25:12;;;;;;;1.13;0.60;;;11.90;98.20;;;;;;6304140;22;20055;-88
2020/12/23 05:27:49;;;;;;;3.22;0.98;;;11.90;98.10;;;;;;6303915;22;20223;-87
2020/12/23 05:30:19;;;;;;;0.88;0.50;;;11.90;97.80;;;;;;6331742;22;20019;-88
2020/12/23 05:32:47;;;;;;;3.33;0.50;;;12.00;97.80;;;;;;6277737;22;20068;-87
2020/12/23 05:35:18;;;;;;;3.20;0.50;;;12.10;97.60;;;;;;6252726;22;20022;-90
2020/12/23 05:37:52;;;;;;;0.90;0.45;;;12.10;97.40;;;;;;6279410;22;20052;-89
2020/12/23 05:40:24;;;;;;;1.10;0.30;;;12.20;97.00;;;;;;6303577;22;20050;-89
2020/12/23 05:43:06;;;;;;;2.53;0.52;;;12.10;97.00;;;;;;6330618;22;20026;-89
2020/12/23 05:45:52;;;;;;;1.10;0.43;;;12.10;97.00;;;;;;6330798;22;20066;-90
2020/12/23 05:48:28;;;;;;;2.45;0.57;;;12.10;96.90;;;;;;6303739;22;20073;-87
2020/12/23 05:51:07;;;;;;;1.38;0.40;;;12.20;96.80;;;;;;6331518;22;20075;-89
2020/12/23 05:53:39;;;;;;;1.17;0.40;;;12.10;96.70;;;;;;6304203;22;20240;-87
2020/12/23 05:56:40;;;;;;;0.82;0.20;;;12.10;96.80;;;;;;6333472;22;20071;-89
2020/12/23 05:59:12;;;;;;;2.38;0.60;;;12.00;96.80;;;;;;6279847;22;20023;-89
2020/12/23 06:01:45;;;;;;;2.00;0.43;;;12.00;96.80;;;;;;6277619;22;20061;-89
2020/12/23 06:04:14;;;;;;;2.90;0.32;;;11.90;96.90;;;;;;6302463;22;20045;-87
2020/12/23 06:07:03;;;;;;;0.63;0.30;;;11.90;97.20;;;;;;6303844;22;20034;-88
2020/12/23 06:09:39;;;;;;;4.90;0.70;;;11.70;97.30;;;;;;6304526;22;20044;-88
2020/12/23 06:12:23;;;;;;;1.15;0.55;;;11.70;97.60;;;;;;6302680;22;20019;-86
2020/12/23 06:14:54;;;;;;;0.93;0.52;;;11.70;97.70;;;;;;6329817;22;20015;-86
2020/12/23 06:17:24;;;;;;;3.90;0.45;;;11.70;97.80;;;;;;6276525;22;20066;-88
2020/12/23 06:19:53;;;;;;;;;;;11.70;97.90;;;;;;6330165;22;20026;-88
2020/12/23 06:22:28;;;;;;;0.60;0.40;;;11.70;97.60;;;;;;6301776;22;19948;-87
2020/12/23 06:25:07;;;;;;;2.27;0.40;;;11.70;97.70;;;;;;6328811;22;20061;-87
2020/12/23 06:27:42;;;;;;;2.92;0.40;;;11.60;97.80;;;;;;6304121;22;20078;-89
2020/12/23 06:30:30;;;;;;;0.90;0.40;;;11.60;97.80;;;;;;6279941;22;20026;-87
2020/12/23 06:33:11;;;;;;;1.15;0.32;;;11.60;97.90;;;;;;6305049;22;20070;-88
2020/12/23 06:35:46;;;;;;;;;;;11.60;98.00;;;;;;6303577;22;20015;-88
2020/12/23 06:38:25;;;;;;;1.65;0.60;;;11.50;98.00;;;;;;6277349;22;19920;-87
2020/12/23 06:41:01;;;;;;;1.48;0.40;;;11.50;98.00;;;;;;6304412;22;20068;-87
2020/12/23 06:44:00;;;;;;;1.23;0.60;;;11.50;98.00;;;;;;6279328;22;20373;-87
2020/12/23 06:47:02;;;;;;;3.50;0.50;;;11.50;98.10;;;;;;6303102;22;20039;-86
2020/12/23 06:50:13;;;;;;;4.32;0.93;;;11.50;98.20;;;;;;6302836;22;20025;-87
2020/12/23 06:52:50;;;;;;;2.38;0.93;;;11.50;98.20;;;;;;6270924;22;20012;-87
2020/12/23 06:56:04;;;;;;;1.63;0.77;;;11.40;98.20;;;;;;6272225;22;20020;-87
2020/12/23 06:58:46;;;;;;;5.57;1.60;;;11.40;98.30;;;;;;6273444;22;20016;-88
2020/12/23 07:01:21;;;;;;;2.03;1.02;;;11.40;98.30;;;;;;6273778;22;20027;-89
2020/12/23 07:04:01;;;;;;;2.10;0.90;;;11.40;98.40;;;;;;6300991;22;20011;-89
2020/12/23 07:06:33;;;;;;;3.70;1.48;;;11.40;98.30;;;;;;6274188;22;20346;-90
2020/12/23 07:09:09;;;;;;;2.22;0.75;;;11.40;98.40;;;;;;6275385;22;20022;-89
2020/12/23 07:11:48;;;;;;;3.17;1.35;;;11.30;98.30;;;;;;6274351;22;20020;-88
2020/12/23 07:14:28;;;;;;;7.60;0.98;;;11.40;98.30;;;;;;6247239;22;20035;-89
2020/12/23 07:17:06;;;;;;;3.35;1.50;;;11.40;98.40;;;;;;6274421;22;20019;-89
2020/12/23 07:19:45;;;;;;;2.92;1.05;;;11.30;98.30;;;;;;6300918;22;20016;-89
2020/12/23 07:25:22;;;;;;;3.38;1.38;;;11.30;98.30;;;;;;6297933;22;20030;-89
2020/12/23 07:27:54;;;;;;;3.55;1.35;;;11.30;98.30;;;;;;6272732;22;20046;-88
2020/12/23 07:30:29;;;;;;;9.80;4.05;;;11.20;98.40;;;;;;6300180;22;20063;-89
2020/12/23 07:33:02;;;;;;;6.03;2.20;;;11.20;98.40;;;;;;6248113;22;20015;-86
2020/12/23 07:35:30;;;;;;;;;;;11.20;98.50;;;;;;6274499;22;20015;-88
2020/12/23 07:38:04;;;;;;;3.05;0.98;;;11.20;98.50;;;;;;6296852;22;19967;-88
2020/12/23 07:40:33;;;;;;;2.85;0.90;;;11.20;98.50;;;;;;6298255;22;20022;-86
2020/12/23 07:43:04;;;;;;;1.77;0.60;;;11.10;98.40;;;;;;6272268;22;20046;-86
2020/12/23 07:45:33;;;;;;;3.15;0.77;;;11.10;98.50;;;;;;6245974;22;20007;-87
2020/12/23 07:48:07;;;;;;;2.78;0.65;;;11.10;98.50;;;;;;6273015;22;20027;-86
2020/12/23 07:50:37;;;;;;;0.95;0.40;;;11.10;98.50;;;;;;6297407;22;20318;-87
2020/12/23 07:53:14;;;;;;;0.80;0.30;;;11.10;98.50;;;;;;6270447;22;20015;-87
2020/12/23 07:56:05;;;;;;;1.10;0.30;;;11.10;98.40;;;;;;6246423;22;20031;-86
2020/12/23 07:58:43;;;;;;;0.47;0.20;;;11.10;98.40;;;;;;6247596;22;20026;-85
2020/12/23 08:01:13;;;;;;;0.47;0.28;;;11.20;98.40;;;;;;6273561;22;20015;-89
2020/12/23 08:03:45;;;;;;;;;;;11.10;98.30;;;;;;6248493;22;20008;-88
2020/12/23 08:06:22;;;;;;;2.85;0.50;;;11.10;98.30;;;;;;6273461;22;19918;-87
2020/12/23 08:08:51;;;;;;;1.17;0.32;;;11.10;98.30;;;;;;6274028;22;20019;-87
2020/12/23 08:11:18;;;;;;;1.98;0.45;;;11.20;98.30;;;;;;6246873;22;20034;-87
2020/12/23 08:14:04;;;;;;;4.63;0.60;;;11.20;98.20;;;;;;6249534;22;20069;-88
2020/12/23 08:16:35;;;;;;;1.77;0.65;;;11.20;98.10;;;;;;6274329;22;20015;-88
2020/12/23 08:19:07;;;;;;;0.93;0.40;;;11.20;98.00;;;;;;6248086;22;20015;-86
2020/12/23 08:21:34;;;;;;;3.90;1.02;;;11.30;98.10;;;;;;6273126;22;20030;-87
2020/12/23 08:24:05;;;;;;;5.47;0.70;;;11.30;98.10;;;;;;6275955;22;20039;-86
2020/12/23 08:26:42;;;;;;;;;;;11.30;98.00;;;;;;6242770;23;20024;-88
2020/12/23 08:29:09;;;;;;;0.75;0.60;;;11.30;98.00;;;;;;6243334;23;20249;-88
2020/12/23 08:31:45;;;;;;;4.30;0.60;;;11.30;97.90;;;;;;6215936;23;20080;-87
2020/12/23 08:34:14;;;;;;;3.00;0.63;;;11.30;97.80;;;;;;6271874;23;20075;-88
2020/12/23 08:36:53;;;;;;;0.93;0.55;;;11.40;97.80;;;;;;6217843;23;20020;-87
2020/12/23 08:39:26;;;;;;;0.68;0.30;;;11.40;97.70;;;;;;6268157;23;20066;-88
2020/12/23 08:41:53;;;;;;;0.98;0.25;;;11.40;97.60;;;;;;6268013;23;20058;-86
2020/12/23 08:44:21;;;;;;;0.52;0.20;;;11.40;97.70;;;;;;6240498;23;20082;-87
2020/12/23 08:46:55;;;;;;;1.85;0.30;;;11.40;97.60;;;;;;6241586;23;20022;-88
2020/12/23 08:49:23;;;;;;;1.42;0.43;;;11.40;97.80;;;;;;6268785;23;20066;-87
2020/12/23 08:51:52;;;;;;;1.35;0.40;;;11.40;97.70;;;;;;6268728;23;20303;-89
2020/12/23 08:54:25;;;;;;;1.13;0.50;;;11.50;97.80;;;;;;6244046;23;20032;-87
2020/12/23 08:56:57;;;;;;;6.68;1.70;;;11.60;97.60;;;;;;6218288;23;20024;-87
2020/12/23 08:59:27;;;;;;;4.00;2.38;;;11.60;97.50;;;;;;6218569;23;20089;-87
2020/12/23 09:02:11;;;;;;;3.78;1.90;;;11.60;97.50;;;;;;6270469;22;20022;-81
2020/12/23 09:04:38;;;;;;;7.22;3.22;;;11.60;97.70;;;;;;6317749;22;20045;-80
2020/12/23 09:07:05;;;;;;;7.88;2.33;;;11.60;97.50;;;;;;6316283;22;20071;-80
2020/12/23 09:09:33;;;;;;;5.55;2.20;;;11.60;97.70;;;;;;6316452;22;20027;-80
2020/12/23 09:12:01;;;;;;;6.15;2.17;;;11.60;97.90;;;;;;6290601;22;20022;-81
2020/12/23 09:14:30;;;;;;;5.70;2.67;;;11.70;98.10;;;;;;6316646;22;20014;-79
2020/12/23 09:17:06;;;;;;;11.27;2.92;;;11.70;97.80;;;;;;6316310;22;20321;-79
2020/12/23 09:20:02;;;;;;;5.05;2.67;;;11.70;97.70;;;;;;6318084;22;20093;-80
2020/12/23 09:22:35;;;;;;;5.93;2.53;;;11.70;97.70;;;;;;6316861;22;20019;-80
2020/12/23 09:25:17;;;;;;;6.38;2.67;;;11.70;97.60;;;;;;6317983;22;20023;-80
2020/12/23 09:27:47;;;;;;;6.00;2.45;;;11.80;97.80;;;;;;6317661;22;20015;-80
2020/12/23 09:30:28;;;;;;;4.38;1.60;;;11.80;97.60;;;;;;6290817;22;20023;-79
2020/12/23 09:32:55;;;;;;;6.20;2.15;;;11.80;97.40;;;;;;6316260;22;20221;-81
2020/12/23 09:35:24;;;;;;;7.28;2.72;;;11.80;97.40;;;;;;6290319;22;20030;-82
2020/12/23 09:38:03;;;;;;;11.35;2.25;;;11.90;97.50;;;;;;6317861;22;20019;-81
2020/12/23 09:40:33;;;;;;;7.40;2.35;;;11.90;97.30;;;;;;6317667;22;20324;-80
2020/12/23 09:43:00;;;;;;;11.77;2.92;;;11.90;97.30;;;;;;6317780;22;20011;-80
2020/12/23 09:45:28;;;;;;;5.18;1.77;;;11.90;97.30;;;;;;6316550;22;20023;-80
2020/12/23 09:47:54;;;;;;;5.55;2.10;;;12.00;97.70;;;;;;6316754;22;20355;-80
2020/12/23 09:50:21;;;;;;;5.75;2.03;;;12.20;97.10;;;;;;6317696;22;20230;-80
2020/12/23 09:52:48;;;;;;;4.60;2.22;;;12.20;96.80;;;;;;6317356;22;20037;-80
2020/12/23 09:55:15;;;;;;;5.22;2.88;;;12.20;96.80;;;;;;6316127;22;20233;-80
2020/12/23 09:57:42;;;;;;;7.25;4.05;;;12.20;96.60;;;;;;6318214;22;20078;-81
2020/12/23 10:00:09;;;;;;;7.00;3.47;;;12.20;96.50;;;;;;6316074;22;20031;-80
2020/12/23 10:02:43;;;;;;;6.43;2.70;;;12.20;96.40;;;;;;6316115;22;20027;-81
2020/12/23 10:05:09;;;;;;;3.83;2.67;;;12.30;96.50;;;;;;6315880;22;20027;-81
2020/12/23 10:07:37;;;;;;;3.40;1.65;;;12.30;96.40;;;;;;6317232;22;20023;-79
2020/12/23 10:10:05;;;;;;;3.67;1.63;;;12.20;96.20;;;;;;6290313;22;20026;-80
2020/12/23 10:12:33;;;;;;;3.72;2.00;;;12.20;96.30;;;;;;6317280;22;20022;-80
2020/12/23 10:15:06;;;;;;;4.78;2.60;;;12.20;96.30;;;;;;6316008;22;20075;-80
2020/12/23 10:17:33;;;;;;;4.63;2.13;;;12.20;96.40;;;;;;6316016;22;20015;-80
2020/12/23 10:20:00;;;;;;;6.20;2.38;;;12.20;96.60;;;;;;6318339;22;20035;-79
2020/12/23 10:22:29;;;;;;;5.00;2.20;;;12.30;96.40;;;;;;6317399;22;20054;-79
2020/12/23 10:24:56;;;;;;;5.35;2.30;;;12.30;96.40;;;;;;6315636;22;20052;-79
2020/12/23 10:27:23;;;;;;;3.85;2.15;;;12.20;96.20;;;;;;6290391;22;20207;-80
2020/12/23 10:29:49;;;;;;;10.73;3.47;;;12.20;96.50;;;;;;6315791;22;20026;-80
2020/12/23 10:32:18;;;;;;;6.10;3.53;;;12.20;96.60;;;;;;6317570;22;20193;-81
2020/12/23 10:34:45;;;;;;;5.88;2.17;;;12.20;96.40;;;;;;6315661;22;20015;-80
2020/12/23 10:37:12;;;;;;;4.32;2.08;;;12.20;96.70;;;;;;6315435;22;20059;-79
2020/12/23 10:39:39;;;;;;;9.52;2.92;;;12.20;96.50;;;;;;6316804;22;20065;-81
2020/12/23 10:42:06;;;;;;;4.60;2.55;;;12.20;96.80;;;;;;6289344;22;20011;-81
2020/12/23 10:44:33;;;;;;;6.45;2.85;;;12.20;97.00;;;;;;6316810;22;20026;-80
2020/12/23 10:47:00;;;;;;;7.60;2.58;;;12.30;97.00;;;;;;6290126;22;20019;-81
2020/12/23 10:49:28;;;;;;;5.63;2.15;;;12.40;96.70;;;;;;6316914;22;20027;-80
2020/12/23 10:51:57;;;;;;;7.95;3.53;;;12.50;96.60;;;;;;6315298;22;20019;-80
2020/12/23 10:54:25;;;;;;;6.53;3.85;;;12.50;96.40;;;;;;6315751;22;20065;-80
2020/12/23 10:56:52;;;;;;;6.70;3.72;;;12.50;96.20;;;;;;6315521;22;20034;-80
2020/12/23 10:59:19;;;;;;;5.63;2.72;;;12.50;96.30;;;;;;6289023;22;20217;-81
2020/12/23 11:01:46;;;;;;;4.03;2.50;;;12.40;96.30;;;;;;6315075;22;20066;-80
2020/12/23 11:04:13;;;;;;;5.22;2.80;;;12.40;96.40;;;;;;6316060;22;20328;-81
2020/12/23 11:06:40;;;;;;;7.78;3.67;;;12.50;96.40;;;;;;6317089;22;20019;-80
2020/12/23 11:09:07;;;;;;;4.97;2.67;;;12.50;96.30;;;;;;6289579;22;20481;-80
2020/12/23 11:11:34;;;;;;;5.78;2.58;;;12.50;96.40;;;;;;6316566;22;20039;-81
2020/12/23 11:14:03;;;;;;;7.25;3.17;;;12.60;96.30;;;;;;6315487;22;20019;-79
2020/12/23 11:16:30;;;;;;;6.88;3.38;;;12.60;96.10;;;;;;6317053;22;20027;-80
2020/12/23 11:18:57;;;;;;;5.40;2.50;;;12.60;96.10;;;;;;6315415;22;20023;-80
2020/12/23 11:21:24;;;;;;;5.90;2.47;;;12.60;96.10;;;;;;6317445;22;20322;-80
2020/12/23 11:23:52;;;;;;;4.45;2.20;;;12.50;96.00;;;;;;6315214;22;20020;-81
2020/12/23 11:26:21;;;;;;;3.67;1.83;;;12.40;96.40;;;;;;6316294;22;20019;-80
2020/12/23 11:28:49;;;;;;;4.25;1.70;;;12.40;96.60;;;;;;6315350;22;20019;-82
2020/12/23 11:31:16;;;;;;;5.25;1.98;;;12.60;96.60;;;;;;6316794;22;20016;-80
2020/12/23 11:33:43;;;;;;;8.18;3.28;;;12.60;96.20;;;;;;6317393;22;20015;-80
2020/12/23 11:36:13;;;;;;;8.90;4.40;;;12.60;96.00;;;;;;6317446;22;20033;-82
2020/12/23 11:38:40;;;;;;;5.97;2.90;;;12.60;96.30;;;;;;6319384;22;20249;-80
2020/12/23 11:41:08;;;;;;;8.80;3.05;;;12.60;96.10;;;;;;6317480;22;20022;-81
2020/12/23 11:43:35;;;;;;;6.20;2.70;;;12.60;96.00;;;;;;6317637;22;20018;-81
2020/12/23 11:46:04;;;;;;;4.05;2.33;;;12.50;96.20;;;;;;6319239;22;20081;-81
2020/12/23 11:48:31;;;;;;;4.63;2.17;;;12.50;96.00;;;;;;6317819;22;20023;-81
2020/12/23 11:50:58;;;;;;;6.35;2.53;;;12.50;96.00;;;;;;6318704;22;20038;-81
2020/12/23 11:53:25;;;;;;;5.72;2.17;;;12.40;96.10;;;;;;6318102;22;20046;-79
2020/12/23 11:55:52;;;;;;;5.55;2.53;;;12.40;96.40;;;;;;6321723;22;20035;-79
2020/12/23 11:58:20;;;;;;;10.02;3.50;;;12.40;96.40;;;;;;6319299;22;20020;-80
2020/12/23 12:00:48;;;;;;;5.65;3.10;;;12.40;96.50;;;;;;6318021;22;20209;-81
2020/12/23 12:03:15;;;;;;;6.70;2.80;;;12.40;96.50;;;;;;6318744;22;20022;-81
2020/12/23 12:05:42;;;;;;;8.98;3.10;;;12.30;96.40;;;;;;6317914;22;20320;-80
2020/12/23 12:08:10;;;;;;;6.57;2.88;;;12.30;96.70;;;;;;6317443;22;20082;-80
2020/12/23 12:10:36;;;;;;;7.78;2.47;;;12.30;96.80;;;;;;6292487;22;20210;-80
2020/12/23 12:13:05;;;;;;;7.22;2.78;;;12.30;96.80;;;;;;6318983;22;20290;-80
2020/12/23 12:15:32;;;;;;;6.65;2.90;;;12.30;97.00;;;;;;6319177;22;20038;-80
2020/12/23 12:17:59;;;;;;;10.02;3.03;;;12.40;96.80;;;;;;6292234;22;20068;-80
2020/12/23 12:20:27;;;;;;;11.23;4.32;;;12.30;97.00;;;;;;6319479;22;20020;-80
2020/12/23 12:22:55;;;;;;;8.00;4.20;;;12.30;97.20;;;;;;6318413;22;20019;-81
2020/12/23 12:25:21;;;;;;;10.60;4.63;;;12.30;97.10;;;;;;6319720;22;20019;-80
2020/12/23 12:27:48;;;;;;;5.38;2.25;;;12.30;97.20;;;;;;6318535;22;20027;-80
2020/12/23 12:30:15;;;;;;;6.68;2.28;;;12.30;97.40;;;;;;6318680;22;20061;-80
2020/12/23 12:32:45;;;;;;;4.25;2.00;;;12.40;97.30;;;;;;6318787;22;20015;-80
2020/12/23 12:35:12;;;;;;;4.70;1.83;;;12.40;96.90;;;;;;6319522;22;20022;-79
2020/12/23 12:37:39;;;;;;;6.05;2.20;;;12.40;96.70;;;;;;6318639;22;20019;-81
2020/12/23 12:40:06;;;;;;;4.80;1.92;;;12.40;96.80;;;;;;6318871;22;20015;-80
2020/12/23 12:42:33;;;;;;;5.20;2.00;;;12.40;96.80;;;;;;6317724;22;20223;-81
2020/12/23 12:45:00;;;;;;;3.75;1.40;;;12.40;96.70;;;;;;6317815;22;20038;-80
2020/12/23 12:47:27;;;;;;;5.90;1.70;;;12.40;96.60;;;;;;6317650;22;20027;-80
2020/12/23 12:49:55;;;;;;;5.32;1.80;;;12.40;96.50;;;;;;6291611;22;20209;-80
2020/12/23 12:52:22;;;;;;;4.40;2.13;;;12.50;96.40;;;;;;6316044;22;20034;-81
2020/12/23 12:54:48;;;;;;;5.03;2.10;;;12.50;96.20;;;;;;6317059;22;20334;-80
2020/12/23 12:57:15;;;;;;;3.85;1.88;;;12.50;96.30;;;;;;6316826;22;20026;-81
2020/12/23 12:59:42;;;;;;;5.05;1.38;;;12.50;96.00;;;;;;6318985;22;20015;-81
2020/12/23 13:02:09;;;;;;;3.47;1.83;;;12.60;95.80;;;;;;6316388;22;20019;-80
2020/12/23 13:04:37;;;;;;;4.15;1.98;;;12.60;95.80;;;;;;6317366;22;20057;-80
2020/12/23 13:07:10;;;;;;;3.55;1.67;;;12.60;95.90;;;;;;6321096;22;20206;-80
2020/12/23 13:09:37;;;;;;;4.78;2.22;;;12.60;95.60;;;;;;6319846;22;20030;-80
2020/12/23 13:12:05;;;;;;;5.18;2.25;;;12.70;95.40;;;;;;6317413;22;20018;-81
2020/12/23 13:14:32;;;;;;;2.70;1.58;;;12.70;95.20;;;;;;6316783;22;20056;-80
2020/12/23 13:16:59;;;;;;;5.22;1.85;;;12.70;95.20;;;;;;6291120;22;20022;-78
2020/12/23 13:19:27;;;;;;;3.50;1.40;;;12.70;95.10;;;;;;6318337;22;20030;-81
2020/12/23 13:21:55;;;;;;;3.38;1.50;;;12.80;94.90;;;;;;6318627;22;20117;-81
2020/12/23 13:24:22;;;;;;;5.55;1.80;;;12.80;94.80;;;;;;6316764;22;20332;-80
2020/12/23 13:26:51;;;;;;;3.22;1.67;;;12.80;94.90;;;;;;6316964;22;20027;-79
2020/12/23 13:29:18;;;;;;;3.67;1.80;;;12.80;94.90;;;;;;6317081;22;20023;-80
2020/12/23 13:31:46;;;;;;;5.07;1.75;;;12.90;94.80;;;;;;6291289;22;20011;-80
2020/12/23 13:34:13;;;;;;;2.85;1.25;;;12.80;95.00;;;;;;6316809;22;20015;-79
2020/12/23 13:36:42;;;;;;;4.47;1.30;;;12.80;95.10;;;;;;6317173;22;20077;-79
2020/12/23 13:39:10;;;;;;;4.10;1.63;;;12.80;95.00;;;;;;6290759;22;20080;-81
2020/12/23 13:41:38;;;;;;;4.50;1.70;;;12.80;95.00;;;;;;6316164;22;20026;-80
2020/12/23 13:44:05;;;;;;;2.58;1.30;;;12.70;95.40;;;;;;6290626;22;20232;-79